sensor_id;sensor_type;location;lat;lon;timestamp;temperature;humidity
5334;DHT22;2689;50.954;7.116;2023-01-15T00:00:57;7.70;99.90
5334;DHT22;2689;50.954;7.116;2023-01-15T00:03:25;7.60;99.90
5334;DHT22;2689;50.954;7.116;2023-01-15T00:05:52;7.60;99.90
5334;DHT22;2689;50.954;7.116;2023-01-15T00:08:18;7.50;99.90
5334;DHT22;2689;50.954;7.116;2023-01-15T00:10:45;7.50;99.90
5334;DHT22;2689;50.954;7.116;2023-01-15T00:13:12;7.50;99.90
5334;DHT22;2689;50.954;7.116;2023-01-15T00:15:39;7.40;99.90
5334;DHT22;2689;50.954;7.116;2023-01-15T00:18:06;7.30;99.90
5334;DHT22;2689;50.954;7.116;2023-01-15T00:20:34;7.30;99.90
5334;DHT22;2689;50.954;7.116;2023-01-15T00:23:00;7.30;99.90
5334;DHT22;2689;50.954;7.116;2023-01-15T00:25:27;7.30;99.90
5334;DHT22;2689;50.954;7.116;2023-01-15T00:28:12;7.30;99.90
5334;DHT22;2689;50.954;7.116;2023-01-15T00:30:40;7.30;99.90
5334;DHT22;2689;50.954;7.116;2023-01-15T00:33:07;7.30;99.90
5334;DHT22;2689;50.954;7.116;2023-01-15T00:35:35;7.30;99.90
5334;DHT22;2689;50.954;7.116;2023-01-15T00:38:02;7.30;99.90
5334;DHT22;2689;50.954;7.116;2023-01-15T00:40:28;7.30;99.90
5334;DHT22;2689;50.954;7.116;2023-01-15T00:42:55;7.30;99.90
5334;DHT22;2689;50.954;7.116;2023-01-15T00:45:22;7.40;99.90
5334;DHT22;2689;50.954;7.116;2023-01-15T00:47:48;7.50;99.90
5334;DHT22;2689;50.954;7.116;2023-01-15T00:50:15;7.40;99.90
5334;DHT22;2689;50.954;7.116;2023-01-15T00:52:43;7.40;99.90
5334;DHT22;2689;50.954;7.116;2023-01-15T00:55:11;7.50;99.90
5334;DHT22;2689;50.954;7.116;2023-01-15T00:57:37;7.40;99.90
5334;DHT22;2689;50.954;7.116;2023-01-15T01:00:05;7.40;99.90
5334;DHT22;2689;50.954;7.116;2023-01-15T01:02:32;7.40;99.90
5334;DHT22;2689;50.954;7.116;2023-01-15T01:04:59;7.40;99.90
5334;DHT22;2689;50.954;7.116;2023-01-15T01:07:25;7.40;99.90
5334;DHT22;2689;50.954;7.116;2023-01-15T01:09:53;7.40;99.90
5334;DHT22;2689;50.954;7.116;2023-01-15T01:12:20;7.50;99.90
5334;DHT22;2689;50.954;7.116;2023-01-15T01:14:48;7.50;99.90
5334;DHT22;2689;50.954;7.116;2023-01-15T01:17:14;7.50;99.90
5334;DHT22;2689;50.954;7.116;2023-01-15T01:19:41;7.50;99.90
5334;DHT22;2689;50.954;7.116;2023-01-15T01:22:08;7.50;99.90
5334;DHT22;2689;50.954;7.116;2023-01-15T01:24:34;7.50;99.90
5334;DHT22;2689;50.954;7.116;2023-01-15T01:27:03;7.50;99.90
5334;DHT22;2689;50.954;7.116;2023-01-15T01:29:29;7.50;99.90
5334;DHT22;2689;50.954;7.116;2023-01-15T01:31:56;7.50;99.90
5334;DHT22;2689;50.954;7.116;2023-01-15T01:34:23;7.50;99.90
5334;DHT22;2689;50.954;7.116;2023-01-15T01:36:49;7.50;99.90
5334;DHT22;2689;50.954;7.116;2023-01-15T01:39:17;7.50;99.90
5334;DHT22;2689;50.954;7.116;2023-01-15T01:41:45;7.50;99.90
5334;DHT22;2689;50.954;7.116;2023-01-15T01:47:20;7.60;99.90
5334;DHT22;2689;50.954;7.116;2023-01-15T01:49:50;7.60;99.90
5334;DHT22;2689;50.954;7.116;2023-01-15T01:52:21;7.50;99.90
5334;DHT22;2689;50.954;7.116;2023-01-15T01:54:49;7.50;99.90
5334;DHT22;2689;50.954;7.116;2023-01-15T01:57:17;7.50;99.90
5334;DHT22;2689;50.954;7.116;2023-01-15T01:59:46;7.40;99.90
5334;DHT22;2689;50.954;7.116;2023-01-15T02:02:14;7.50;99.90
5334;DHT22;2689;50.954;7.116;2023-01-15T02:04:43;7.50;99.90
5334;DHT22;2689;50.954;7.116;2023-01-15T02:07:11;7.50;99.90
5334;DHT22;2689;50.954;7.116;2023-01-15T02:09:38;7.50;99.90
5334;DHT22;2689;50.954;7.116;2023-01-15T02:12:08;7.50;99.90
5334;DHT22;2689;50.954;7.116;2023-01-15T02:14:41;7.50;99.90
5334;DHT22;2689;50.954;7.116;2023-01-15T02:17:14;7.50;99.90
5334;DHT22;2689;50.954;7.116;2023-01-15T02:19:50;7.50;99.90
5334;DHT22;2689;50.954;7.116;2023-01-15T02:22:27;7.60;99.90
5334;DHT22;2689;50.954;7.116;2023-01-15T02:25:04;7.60;99.90
5334;DHT22;2689;50.954;7.116;2023-01-15T02:27:35;7.60;99.90
5334;DHT22;2689;50.954;7.116;2023-01-15T02:30:07;7.50;99.90
5334;DHT22;2689;50.954;7.116;2023-01-15T02:32:40;7.50;99.90
5334;DHT22;2689;50.954;7.116;2023-01-15T02:35:13;7.50;99.90
5334;DHT22;2689;50.954;7.116;2023-01-15T02:37:44;7.50;99.90
5334;DHT22;2689;50.954;7.116;2023-01-15T02:40:13;7.60;99.90
5334;DHT22;2689;50.954;7.116;2023-01-15T02:42:44;7.60;99.90
5334;DHT22;2689;50.954;7.116;2023-01-15T02:45:13;7.60;99.90
5334;DHT22;2689;50.954;7.116;2023-01-15T02:47:43;7.60;99.90
5334;DHT22;2689;50.954;7.116;2023-01-15T02:50:14;7.60;99.90
5334;DHT22;2689;50.954;7.116;2023-01-15T02:52:43;7.60;99.90
5334;DHT22;2689;50.954;7.116;2023-01-15T02:55:15;7.50;99.90
5334;DHT22;2689;50.954;7.116;2023-01-15T02:57:45;7.50;99.90
5334;DHT22;2689;50.954;7.116;2023-01-15T03:00:14;7.50;99.90
5334;DHT22;2689;50.954;7.116;2023-01-15T03:02:45;7.50;99.90
5334;DHT22;2689;50.954;7.116;2023-01-15T03:05:17;7.50;99.90
5334;DHT22;2689;50.954;7.116;2023-01-15T03:07:49;7.50;99.90
5334;DHT22;2689;50.954;7.116;2023-01-15T03:10:17;7.50;99.90
5334;DHT22;2689;50.954;7.116;2023-01-15T03:12:49;7.50;99.90
5334;DHT22;2689;50.954;7.116;2023-01-15T03:15:39;7.40;99.90
5334;DHT22;2689;50.954;7.116;2023-01-15T03:18:28;7.40;99.90
5334;DHT22;2689;50.954;7.116;2023-01-15T03:20:59;7.50;99.90
5334;DHT22;2689;50.954;7.116;2023-01-15T03:23:29;7.50;99.90
5334;DHT22;2689;50.954;7.116;2023-01-15T03:25:56;7.50;99.90
5334;DHT22;2689;50.954;7.116;2023-01-15T03:28:26;7.50;99.90
5334;DHT22;2689;50.954;7.116;2023-01-15T03:30:54;7.50;99.90
5334;DHT22;2689;50.954;7.116;2023-01-15T03:33:21;7.50;99.90
5334;DHT22;2689;50.954;7.116;2023-01-15T03:35:51;7.50;99.90
5334;DHT22;2689;50.954;7.116;2023-01-15T03:38:20;7.50;99.90
5334;DHT22;2689;50.954;7.116;2023-01-15T03:40:52;7.40;99.90
5334;DHT22;2689;50.954;7.116;2023-01-15T03:43:30;7.40;99.90
5334;DHT22;2689;50.954;7.116;2023-01-15T03:46:14;7.40;99.90
5334;DHT22;2689;50.954;7.116;2023-01-15T03:48:53;7.40;99.90
5334;DHT22;2689;50.954;7.116;2023-01-15T03:51:25;7.50;99.90
5334;DHT22;2689;50.954;7.116;2023-01-15T03:53:56;7.50;99.90
5334;DHT22;2689;50.954;7.116;2023-01-15T03:56:28;7.50;99.90
5334;DHT22;2689;50.954;7.116;2023-01-15T03:59:00;7.50;99.90
5334;DHT22;2689;50.954;7.116;2023-01-15T04:01:32;7.60;99.90
5334;DHT22;2689;50.954;7.116;2023-01-15T04:04:01;7.50;99.90
5334;DHT22;2689;50.954;7.116;2023-01-15T04:06:30;7.50;99.90
5334;DHT22;2689;50.954;7.116;2023-01-15T04:08:58;7.50;99.90
5334;DHT22;2689;50.954;7.116;2023-01-15T04:11:26;7.50;99.90
5334;DHT22;2689;50.954;7.116;2023-01-15T04:13:52;7.50;99.90
5334;DHT22;2689;50.954;7.116;2023-01-15T04:16:24;7.50;99.90
5334;DHT22;2689;50.954;7.116;2023-01-15T04:18:51;7.60;99.90
5334;DHT22;2689;50.954;7.116;2023-01-15T04:21:18;7.50;99.90
5334;DHT22;2689;50.954;7.116;2023-01-15T04:23:45;7.60;99.90
5334;DHT22;2689;50.954;7.116;2023-01-15T04:26:12;7.50;99.90
5334;DHT22;2689;50.954;7.116;2023-01-15T04:28:39;7.50;99.90
5334;DHT22;2689;50.954;7.116;2023-01-15T04:31:06;7.50;99.90
5334;DHT22;2689;50.954;7.116;2023-01-15T04:33:34;7.50;99.90
5334;DHT22;2689;50.954;7.116;2023-01-15T04:36:02;7.60;99.90
5334;DHT22;2689;50.954;7.116;2023-01-15T04:38:29;7.60;99.90
5334;DHT22;2689;50.954;7.116;2023-01-15T04:40:59;7.60;99.90
5334;DHT22;2689;50.954;7.116;2023-01-15T04:43:44;7.70;99.90
5334;DHT22;2689;50.954;7.116;2023-01-15T04:46:28;7.60;99.90
5334;DHT22;2689;50.954;7.116;2023-01-15T04:48:56;7.60;99.90
5334;DHT22;2689;50.954;7.116;2023-01-15T04:51:23;7.60;99.90
5334;DHT22;2689;50.954;7.116;2023-01-15T04:53:49;7.50;99.90
5334;DHT22;2689;50.954;7.116;2023-01-15T04:56:16;7.60;99.90
5334;DHT22;2689;50.954;7.116;2023-01-15T04:58:43;7.60;99.90
5334;DHT22;2689;50.954;7.116;2023-01-15T05:01:10;7.60;99.90
5334;DHT22;2689;50.954;7.116;2023-01-15T05:03:37;7.50;99.90
5334;DHT22;2689;50.954;7.116;2023-01-15T05:06:06;7.60;99.90
5334;DHT22;2689;50.954;7.116;2023-01-15T05:08:33;7.50;99.90
5334;DHT22;2689;50.954;7.116;2023-01-15T05:11:04;7.50;99.90
5334;DHT22;2689;50.954;7.116;2023-01-15T05:13:32;7.50;99.90
5334;DHT22;2689;50.954;7.116;2023-01-15T05:16:07;7.40;99.90
5334;DHT22;2689;50.954;7.116;2023-01-15T05:18:34;7.50;99.90
5334;DHT22;2689;50.954;7.116;2023-01-15T05:21:01;7.50;99.90
5334;DHT22;2689;50.954;7.116;2023-01-15T05:23:29;7.50;99.90
5334;DHT22;2689;50.954;7.116;2023-01-15T05:25:56;7.50;99.90
5334;DHT22;2689;50.954;7.116;2023-01-15T05:28:23;7.60;99.90
5334;DHT22;2689;50.954;7.116;2023-01-15T05:30:50;7.60;99.90
5334;DHT22;2689;50.954;7.116;2023-01-15T05:33:16;7.60;99.90
5334;DHT22;2689;50.954;7.116;2023-01-15T05:35:43;7.50;99.90
5334;DHT22;2689;50.954;7.116;2023-01-15T05:38:10;7.50;99.90
5334;DHT22;2689;50.954;7.116;2023-01-15T05:40:38;7.60;99.90
5334;DHT22;2689;50.954;7.116;2023-01-15T05:43:05;7.50;99.90
5334;DHT22;2689;50.954;7.116;2023-01-15T05:45:33;7.60;99.90
5334;DHT22;2689;50.954;7.116;2023-01-15T05:48:01;7.60;99.90
5334;DHT22;2689;50.954;7.116;2023-01-15T05:50:27;7.60;99.90
5334;DHT22;2689;50.954;7.116;2023-01-15T05:52:54;7.60;99.90
5334;DHT22;2689;50.954;7.116;2023-01-15T05:55:21;7.60;99.90
5334;DHT22;2689;50.954;7.116;2023-01-15T05:57:50;7.60;99.90
5334;DHT22;2689;50.954;7.116;2023-01-15T06:00:18;7.60;99.90
5334;DHT22;2689;50.954;7.116;2023-01-15T06:02:47;7.60;99.90
5334;DHT22;2689;50.954;7.116;2023-01-15T06:05:15;7.60;99.90
5334;DHT22;2689;50.954;7.116;2023-01-15T06:07:46;7.60;99.90
5334;DHT22;2689;50.954;7.116;2023-01-15T06:10:14;7.60;99.90
5334;DHT22;2689;50.954;7.116;2023-01-15T06:12:41;7.60;99.90
5334;DHT22;2689;50.954;7.116;2023-01-15T06:15:10;7.60;99.90
5334;DHT22;2689;50.954;7.116;2023-01-15T06:17:37;7.60;99.90
5334;DHT22;2689;50.954;7.116;2023-01-15T06:20:05;7.60;99.90
5334;DHT22;2689;50.954;7.116;2023-01-15T06:22:31;7.60;99.90
5334;DHT22;2689;50.954;7.116;2023-01-15T06:24:58;7.60;99.90
5334;DHT22;2689;50.954;7.116;2023-01-15T06:27:25;7.60;99.90
5334;DHT22;2689;50.954;7.116;2023-01-15T06:29:53;7.60;99.90
5334;DHT22;2689;50.954;7.116;2023-01-15T06:32:22;7.60;99.90
5334;DHT22;2689;50.954;7.116;2023-01-15T06:34:49;7.60;99.90
5334;DHT22;2689;50.954;7.116;2023-01-15T06:37:15;7.50;99.90
5334;DHT22;2689;50.954;7.116;2023-01-15T06:39:42;7.50;99.90
5334;DHT22;2689;50.954;7.116;2023-01-15T06:42:09;7.50;99.90
5334;DHT22;2689;50.954;7.116;2023-01-15T06:44:53;7.50;99.90
5334;DHT22;2689;50.954;7.116;2023-01-15T06:47:39;7.40;99.90
5334;DHT22;2689;50.954;7.116;2023-01-15T06:50:06;7.40;99.90
5334;DHT22;2689;50.954;7.116;2023-01-15T06:52:33;7.30;99.90
5334;DHT22;2689;50.954;7.116;2023-01-15T06:55:00;7.30;99.90
5334;DHT22;2689;50.954;7.116;2023-01-15T06:57:27;7.30;99.90
5334;DHT22;2689;50.954;7.116;2023-01-15T06:59:54;7.30;99.90
5334;DHT22;2689;50.954;7.116;2023-01-15T07:02:20;7.30;99.90
5334;DHT22;2689;50.954;7.116;2023-01-15T07:04:49;7.20;99.90
5334;DHT22;2689;50.954;7.116;2023-01-15T07:07:17;7.20;99.90
5334;DHT22;2689;50.954;7.116;2023-01-15T07:09:44;7.20;99.90
5334;DHT22;2689;50.954;7.116;2023-01-15T07:12:11;7.20;99.90
5334;DHT22;2689;50.954;7.116;2023-01-15T07:14:37;7.20;99.90
5334;DHT22;2689;50.954;7.116;2023-01-15T07:17:04;7.10;99.90
5334;DHT22;2689;50.954;7.116;2023-01-15T07:19:31;7.10;99.90
5334;DHT22;2689;50.954;7.116;2023-01-15T07:21:59;7.00;99.90
5334;DHT22;2689;50.954;7.116;2023-01-15T07:24:26;7.00;99.90
5334;DHT22;2689;50.954;7.116;2023-01-15T07:26:52;7.00;99.90
5334;DHT22;2689;50.954;7.116;2023-01-15T07:29:19;7.00;99.90
5334;DHT22;2689;50.954;7.116;2023-01-15T07:31:46;7.00;99.90
5334;DHT22;2689;50.954;7.116;2023-01-15T07:34:12;7.00;99.90
5334;DHT22;2689;50.954;7.116;2023-01-15T07:36:39;6.90;99.90
5334;DHT22;2689;50.954;7.116;2023-01-15T07:39:09;6.90;99.90
5334;DHT22;2689;50.954;7.116;2023-01-15T07:41:36;6.90;99.90
5334;DHT22;2689;50.954;7.116;2023-01-15T07:44:20;6.80;99.90
5334;DHT22;2689;50.954;7.116;2023-01-15T07:47:13;6.80;99.90
5334;DHT22;2689;50.954;7.116;2023-01-15T07:49:58;6.80;99.90
5334;DHT22;2689;50.954;7.116;2023-01-15T07:52:25;6.90;99.90
5334;DHT22;2689;50.954;7.116;2023-01-15T07:54:53;6.90;99.90
5334;DHT22;2689;50.954;7.116;2023-01-15T07:57:21;6.90;99.90
5334;DHT22;2689;50.954;7.116;2023-01-15T07:59:48;6.90;99.90
5334;DHT22;2689;50.954;7.116;2023-01-15T08:02:15;6.90;99.90
5334;DHT22;2689;50.954;7.116;2023-01-15T08:04:42;6.90;99.90
5334;DHT22;2689;50.954;7.116;2023-01-15T08:07:08;6.90;99.90
5334;DHT22;2689;50.954;7.116;2023-01-15T08:09:35;6.90;99.90
5334;DHT22;2689;50.954;7.116;2023-01-15T08:12:04;6.90;99.90
5334;DHT22;2689;50.954;7.116;2023-01-15T08:14:48;6.90;99.90
5334;DHT22;2689;50.954;7.116;2023-01-15T08:17:32;6.90;99.90
5334;DHT22;2689;50.954;7.116;2023-01-15T08:19:59;6.90;99.90
5334;DHT22;2689;50.954;7.116;2023-01-15T08:22:26;6.90;99.90
5334;DHT22;2689;50.954;7.116;2023-01-15T08:24:54;6.90;99.90
5334;DHT22;2689;50.954;7.116;2023-01-15T08:27:22;6.70;99.90
5334;DHT22;2689;50.954;7.116;2023-01-15T08:29:49;6.50;99.90
5334;DHT22;2689;50.954;7.116;2023-01-15T08:32:15;6.30;99.90
5334;DHT22;2689;50.954;7.116;2023-01-15T08:34:42;6.20;99.90
5334;DHT22;2689;50.954;7.116;2023-01-15T08:37:09;6.10;99.90
5334;DHT22;2689;50.954;7.116;2023-01-15T08:39:36;6.10;99.90
5334;DHT22;2689;50.954;7.116;2023-01-15T08:42:03;6.10;99.90
5334;DHT22;2689;50.954;7.116;2023-01-15T08:44:31;6.10;99.90
5334;DHT22;2689;50.954;7.116;2023-01-15T08:46:57;6.10;99.90
5334;DHT22;2689;50.954;7.116;2023-01-15T08:49:24;6.10;99.90
5334;DHT22;2689;50.954;7.116;2023-01-15T08:51:51;6.10;99.90
5334;DHT22;2689;50.954;7.116;2023-01-15T08:54:19;6.20;99.90
5334;DHT22;2689;50.954;7.116;2023-01-15T08:56:49;6.20;99.90
5334;DHT22;2689;50.954;7.116;2023-01-15T08:59:16;6.20;99.90
5334;DHT22;2689;50.954;7.116;2023-01-15T09:01:44;6.20;99.90
5334;DHT22;2689;50.954;7.116;2023-01-15T09:04:13;6.30;99.90
5334;DHT22;2689;50.954;7.116;2023-01-15T09:06:40;6.30;99.90
5334;DHT22;2689;50.954;7.116;2023-01-15T09:09:07;6.30;99.90
5334;DHT22;2689;50.954;7.116;2023-01-15T09:11:34;6.30;99.90
5334;DHT22;2689;50.954;7.116;2023-01-15T09:14:04;6.30;99.90
5334;DHT22;2689;50.954;7.116;2023-01-15T09:16:31;6.30;99.90
5334;DHT22;2689;50.954;7.116;2023-01-15T09:18:59;6.30;99.90
5334;DHT22;2689;50.954;7.116;2023-01-15T09:21:26;6.30;99.90
5334;DHT22;2689;50.954;7.116;2023-01-15T09:23:53;6.40;99.90
5334;DHT22;2689;50.954;7.116;2023-01-15T09:26:26;6.40;99.90
5334;DHT22;2689;50.954;7.116;2023-01-15T09:28:54;6.40;99.90
5334;DHT22;2689;50.954;7.116;2023-01-15T09:31:21;6.50;99.90
5334;DHT22;2689;50.954;7.116;2023-01-15T09:33:48;6.50;99.90
5334;DHT22;2689;50.954;7.116;2023-01-15T09:36:18;6.50;99.90
5334;DHT22;2689;50.954;7.116;2023-01-15T09:38:45;6.60;99.90
5334;DHT22;2689;50.954;7.116;2023-01-15T09:41:13;6.60;99.90
5334;DHT22;2689;50.954;7.116;2023-01-15T09:44:02;6.60;99.90
5334;DHT22;2689;50.954;7.116;2023-01-15T09:46:38;6.60;99.90
5334;DHT22;2689;50.954;7.116;2023-01-15T09:49:19;6.60;99.90
5334;DHT22;2689;50.954;7.116;2023-01-15T09:51:55;6.60;99.90
5334;DHT22;2689;50.954;7.116;2023-01-15T09:54:39;6.60;99.90
5334;DHT22;2689;50.954;7.116;2023-01-15T09:57:10;6.70;99.90
5334;DHT22;2689;50.954;7.116;2023-01-15T09:59:40;6.80;99.90
5334;DHT22;2689;50.954;7.116;2023-01-15T10:02:19;7.00;99.90
5334;DHT22;2689;50.954;7.116;2023-01-15T10:04:51;7.20;99.90
5334;DHT22;2689;50.954;7.116;2023-01-15T10:07:26;7.40;99.90
5334;DHT22;2689;50.954;7.116;2023-01-15T10:09:58;7.50;99.90
5334;DHT22;2689;50.954;7.116;2023-01-15T10:12:28;7.50;99.90
5334;DHT22;2689;50.954;7.116;2023-01-15T10:15:22;7.50;99.90
5334;DHT22;2689;50.954;7.116;2023-01-15T10:17:51;7.60;99.90
5334;DHT22;2689;50.954;7.116;2023-01-15T10:23:36;7.60;99.90
5334;DHT22;2689;50.954;7.116;2023-01-15T10:26:12;7.60;99.90
5334;DHT22;2689;50.954;7.116;2023-01-15T10:28:58;7.70;99.90
5334;DHT22;2689;50.954;7.116;2023-01-15T10:31:38;7.80;99.90
5334;DHT22;2689;50.954;7.116;2023-01-15T10:34:28;7.90;99.90
5334;DHT22;2689;50.954;7.116;2023-01-15T10:37:02;8.00;99.90
5334;DHT22;2689;50.954;7.116;2023-01-15T10:39:37;8.10;99.90
5334;DHT22;2689;50.954;7.116;2023-01-15T10:42:13;8.20;99.90
5334;DHT22;2689;50.954;7.116;2023-01-15T10:44:47;8.30;99.90
5334;DHT22;2689;50.954;7.116;2023-01-15T10:47:18;8.30;99.90
5334;DHT22;2689;50.954;7.116;2023-01-15T10:49:48;8.40;99.90
5334;DHT22;2689;50.954;7.116;2023-01-15T10:52:22;8.40;99.90
5334;DHT22;2689;50.954;7.116;2023-01-15T10:54:54;8.50;99.90
5334;DHT22;2689;50.954;7.116;2023-01-15T10:57:27;8.60;99.90
5334;DHT22;2689;50.954;7.116;2023-01-15T11:00:02;8.60;99.90
5334;DHT22;2689;50.954;7.116;2023-01-15T11:02:31;8.60;99.90
5334;DHT22;2689;50.954;7.116;2023-01-15T11:05:00;8.70;99.90
5334;DHT22;2689;50.954;7.116;2023-01-15T11:07:35;8.80;99.80
5334;DHT22;2689;50.954;7.116;2023-01-15T11:10:09;8.80;98.30
5334;DHT22;2689;50.954;7.116;2023-01-15T11:12:38;8.80;98.00
5334;DHT22;2689;50.954;7.116;2023-01-15T11:15:24;8.80;98.00
5334;DHT22;2689;50.954;7.116;2023-01-15T11:18:13;8.80;97.70
5334;DHT22;2689;50.954;7.116;2023-01-15T11:20:59;8.80;97.50
5334;DHT22;2689;50.954;7.116;2023-01-15T11:23:26;8.80;97.40
5334;DHT22;2689;50.954;7.116;2023-01-15T11:25:56;8.90;97.80
5334;DHT22;2689;50.954;7.116;2023-01-15T11:28:32;8.80;97.60
5334;DHT22;2689;50.954;7.116;2023-01-15T11:31:01;8.70;96.80
5334;DHT22;2689;50.954;7.116;2023-01-15T11:33:28;8.70;97.50
5334;DHT22;2689;50.954;7.116;2023-01-15T11:35:58;8.70;96.90
5334;DHT22;2689;50.954;7.116;2023-01-15T11:38:26;8.70;96.80
5334;DHT22;2689;50.954;7.116;2023-01-15T11:40:57;8.80;96.80
5334;DHT22;2689;50.954;7.116;2023-01-15T11:43:26;8.80;96.60
5334;DHT22;2689;50.954;7.116;2023-01-15T11:46:29;8.80;96.70
5334;DHT22;2689;50.954;7.116;2023-01-15T11:49:16;8.90;96.90
5334;DHT22;2689;50.954;7.116;2023-01-15T11:52:01;8.90;97.30
5334;DHT22;2689;50.954;7.116;2023-01-15T11:54:29;8.90;96.60
5334;DHT22;2689;50.954;7.116;2023-01-15T11:56:59;8.90;96.80
5334;DHT22;2689;50.954;7.116;2023-01-15T11:59:28;8.80;96.70
5334;DHT22;2689;50.954;7.116;2023-01-15T12:01:57;8.80;96.90
5334;DHT22;2689;50.954;7.116;2023-01-15T12:04:33;8.80;97.10
5334;DHT22;2689;50.954;7.116;2023-01-15T12:07:04;8.70;96.50
5334;DHT22;2689;50.954;7.116;2023-01-15T12:09:43;8.60;96.50
5334;DHT22;2689;50.954;7.116;2023-01-15T12:12:22;8.40;96.90
5334;DHT22;2689;50.954;7.116;2023-01-15T12:15:15;8.50;97.60
5334;DHT22;2689;50.954;7.116;2023-01-15T12:17:54;8.50;97.40
5334;DHT22;2689;50.954;7.116;2023-01-15T12:20:27;8.60;97.90
5334;DHT22;2689;50.954;7.116;2023-01-15T12:23:26;8.70;97.10
5334;DHT22;2689;50.954;7.116;2023-01-15T12:26:04;8.80;97.60
5334;DHT22;2689;50.954;7.116;2023-01-15T12:28:38;9.00;96.60
5334;DHT22;2689;50.954;7.116;2023-01-15T12:31:10;9.10;96.80
5334;DHT22;2689;50.954;7.116;2023-01-15T12:33:44;9.20;96.10
5334;DHT22;2689;50.954;7.116;2023-01-15T12:36:15;9.20;96.00
5334;DHT22;2689;50.954;7.116;2023-01-15T12:38:47;9.20;95.80
5334;DHT22;2689;50.954;7.116;2023-01-15T12:41:17;9.20;95.70
5334;DHT22;2689;50.954;7.116;2023-01-15T12:43:52;9.30;95.80
5334;DHT22;2689;50.954;7.116;2023-01-15T12:46:40;9.30;95.30
5334;DHT22;2689;50.954;7.116;2023-01-15T12:49:18;9.10;95.40
5334;DHT22;2689;50.954;7.116;2023-01-15T12:51:53;9.00;96.00
5334;DHT22;2689;50.954;7.116;2023-01-15T12:54:25;8.90;96.00
5334;DHT22;2689;50.954;7.116;2023-01-15T12:56:59;8.90;96.50
5334;DHT22;2689;50.954;7.116;2023-01-15T12:59:34;8.90;95.90
5334;DHT22;2689;50.954;7.116;2023-01-15T13:02:12;8.90;96.40
5334;DHT22;2689;50.954;7.116;2023-01-15T13:04:45;9.00;96.70
5334;DHT22;2689;50.954;7.116;2023-01-15T13:07:19;9.20;95.90
5334;DHT22;2689;50.954;7.116;2023-01-15T13:09:51;9.30;95.90
5334;DHT22;2689;50.954;7.116;2023-01-15T13:12:21;9.40;95.50
5334;DHT22;2689;50.954;7.116;2023-01-15T13:14:49;9.50;95.40
5334;DHT22;2689;50.954;7.116;2023-01-15T13:17:22;9.40;95.20
5334;DHT22;2689;50.954;7.116;2023-01-15T13:20:08;9.20;95.30
5334;DHT22;2689;50.954;7.116;2023-01-15T13:22:45;9.10;95.60
5334;DHT22;2689;50.954;7.116;2023-01-15T13:25:31;9.00;95.10
5334;DHT22;2689;50.954;7.116;2023-01-15T13:28:14;8.90;95.40
5334;DHT22;2689;50.954;7.116;2023-01-15T13:30:55;8.90;95.90
5334;DHT22;2689;50.954;7.116;2023-01-15T13:33:28;8.90;96.00
5334;DHT22;2689;50.954;7.116;2023-01-15T13:36:03;9.00;96.20
5334;DHT22;2689;50.954;7.116;2023-01-15T13:38:36;9.20;96.40
5334;DHT22;2689;50.954;7.116;2023-01-15T13:41:06;9.20;95.00
5334;DHT22;2689;50.954;7.116;2023-01-15T13:43:34;9.30;95.10
5334;DHT22;2689;50.954;7.116;2023-01-15T13:46:07;9.30;94.70
5334;DHT22;2689;50.954;7.116;2023-01-15T13:48:41;9.40;94.90
5334;DHT22;2689;50.954;7.116;2023-01-15T13:51:23;9.50;95.10
5334;DHT22;2689;50.954;7.116;2023-01-15T13:53:51;9.50;94.20
5334;DHT22;2689;50.954;7.116;2023-01-15T13:56:26;9.60;93.90
5334;DHT22;2689;50.954;7.116;2023-01-15T13:58:55;9.70;93.30
5334;DHT22;2689;50.954;7.116;2023-01-15T14:01:30;9.70;93.30
5334;DHT22;2689;50.954;7.116;2023-01-15T14:04:05;9.50;93.10
5334;DHT22;2689;50.954;7.116;2023-01-15T14:06:42;9.40;93.70
5334;DHT22;2689;50.954;7.116;2023-01-15T14:09:13;9.30;93.70
5334;DHT22;2689;50.954;7.116;2023-01-15T14:12:02;9.30;94.00
5334;DHT22;2689;50.954;7.116;2023-01-15T14:14:57;9.20;94.20
5334;DHT22;2689;50.954;7.116;2023-01-15T14:17:54;9.20;94.20
5334;DHT22;2689;50.954;7.116;2023-01-15T14:20:37;9.10;94.30
5334;DHT22;2689;50.954;7.116;2023-01-15T14:23:27;9.00;94.50
5334;DHT22;2689;50.954;7.116;2023-01-15T14:26:05;9.00;94.50
5334;DHT22;2689;50.954;7.116;2023-01-15T14:28:57;8.90;94.30
5334;DHT22;2689;50.954;7.116;2023-01-15T14:31:40;8.90;93.90
5334;DHT22;2689;50.954;7.116;2023-01-15T14:34:13;8.80;94.30
5334;DHT22;2689;50.954;7.116;2023-01-15T14:36:48;8.80;94.20
5334;DHT22;2689;50.954;7.116;2023-01-15T14:39:37;8.80;94.20
5334;DHT22;2689;50.954;7.116;2023-01-15T14:42:09;8.80;94.50
5334;DHT22;2689;50.954;7.116;2023-01-15T14:44:56;8.80;94.50
5334;DHT22;2689;50.954;7.116;2023-01-15T14:47:27;8.70;94.90
5334;DHT22;2689;50.954;7.116;2023-01-15T14:52:43;8.70;94.90
5334;DHT22;2689;50.954;7.116;2023-01-15T14:55:11;8.70;95.00
5334;DHT22;2689;50.954;7.116;2023-01-15T14:57:41;8.80;95.10
5334;DHT22;2689;50.954;7.116;2023-01-15T15:00:16;8.70;94.80
5334;DHT22;2689;50.954;7.116;2023-01-15T15:02:46;8.70;95.10
5334;DHT22;2689;50.954;7.116;2023-01-15T15:05:18;8.70;95.10
5334;DHT22;2689;50.954;7.116;2023-01-15T15:07:48;8.70;95.30
5334;DHT22;2689;50.954;7.116;2023-01-15T15:10:21;8.70;95.50
5334;DHT22;2689;50.954;7.116;2023-01-15T15:12:54;8.60;95.50
5334;DHT22;2689;50.954;7.116;2023-01-15T15:15:33;8.60;95.50
5334;DHT22;2689;50.954;7.116;2023-01-15T15:18:04;8.60;95.80
5334;DHT22;2689;50.954;7.116;2023-01-15T15:20:43;8.70;95.70
5334;DHT22;2689;50.954;7.116;2023-01-15T15:23:17;8.70;95.90
5334;DHT22;2689;50.954;7.116;2023-01-15T15:25:50;8.70;95.50
5334;DHT22;2689;50.954;7.116;2023-01-15T15:28:20;8.60;95.50
5334;DHT22;2689;50.954;7.116;2023-01-15T15:30:47;8.70;95.40
5334;DHT22;2689;50.954;7.116;2023-01-15T15:33:16;8.60;95.40
5334;DHT22;2689;50.954;7.116;2023-01-15T15:35:47;8.60;95.90
5334;DHT22;2689;50.954;7.116;2023-01-15T15:38:16;8.60;95.70
5334;DHT22;2689;50.954;7.116;2023-01-15T15:40:47;8.60;95.60
5334;DHT22;2689;50.954;7.116;2023-01-15T15:43:18;8.60;95.60
5334;DHT22;2689;50.954;7.116;2023-01-15T15:46:03;8.60;96.20
5334;DHT22;2689;50.954;7.116;2023-01-15T15:48:56;8.60;95.80
5334;DHT22;2689;50.954;7.116;2023-01-15T15:51:33;8.50;96.00
5334;DHT22;2689;50.954;7.116;2023-01-15T15:54:07;8.50;96.30
5334;DHT22;2689;50.954;7.116;2023-01-15T15:56:37;8.50;96.40
5334;DHT22;2689;50.954;7.116;2023-01-15T15:59:04;8.50;96.70
5334;DHT22;2689;50.954;7.116;2023-01-15T16:01:36;8.50;96.50
5334;DHT22;2689;50.954;7.116;2023-01-15T16:04:03;8.50;96.60
5334;DHT22;2689;50.954;7.116;2023-01-15T16:06:31;8.50;96.40
5334;DHT22;2689;50.954;7.116;2023-01-15T16:08:59;8.40;96.70
5334;DHT22;2689;50.954;7.116;2023-01-15T16:11:30;8.50;96.80
5334;DHT22;2689;50.954;7.116;2023-01-15T16:13:58;8.40;96.60
5334;DHT22;2689;50.954;7.116;2023-01-15T16:16:27;8.40;96.40
5334;DHT22;2689;50.954;7.116;2023-01-15T16:18:55;8.50;96.70
5334;DHT22;2689;50.954;7.116;2023-01-15T16:21:26;8.50;96.70
5334;DHT22;2689;50.954;7.116;2023-01-15T16:23:56;8.40;96.40
5334;DHT22;2689;50.954;7.116;2023-01-15T16:26:29;8.40;96.70
5334;DHT22;2689;50.954;7.116;2023-01-15T16:28:58;8.40;96.50
5334;DHT22;2689;50.954;7.116;2023-01-15T16:31:25;8.40;96.70
5334;DHT22;2689;50.954;7.116;2023-01-15T16:33:54;8.40;96.90
5334;DHT22;2689;50.954;7.116;2023-01-15T16:36:22;8.40;96.90
5334;DHT22;2689;50.954;7.116;2023-01-15T16:38:50;8.30;97.00
5334;DHT22;2689;50.954;7.116;2023-01-15T16:41:20;8.40;97.70
5334;DHT22;2689;50.954;7.116;2023-01-15T16:43:51;8.40;97.10
5334;DHT22;2689;50.954;7.116;2023-01-15T16:46:19;8.40;97.10
5334;DHT22;2689;50.954;7.116;2023-01-15T16:48:47;8.40;97.20
5334;DHT22;2689;50.954;7.116;2023-01-15T16:51:29;8.40;97.40
5334;DHT22;2689;50.954;7.116;2023-01-15T16:53:57;8.40;97.50